Meknes, Morocco
Current Conditions -  °F | °C
As of 4:00 PM on Friday 19 Dec 2014 (Local Time) from GMFM Reporting Station
Few Clouds Few Clouds  
Wind Chill: 57°   Ceiling: Unl
Heat Index: 57°   Visibility: 3mi
Dew Point: 50°   Wind: 5mph
Humidity: 77%   Direction: 320°NW
Pressure: 30.36"   Gusts: NA
Location:  33.9°N, 5.56°W
Report Text: GMFM 191500Z 32004KT 5000 FEW016 14/10 Q1028 NOSIG
Loading
Personal Weather Stations






























Interactive Weather Map New forecast layout! Learn more

10-Day Weather Forecast

Advertisements
Track Severe Weather on mobile